sensor_id;sensor_type;location;lat;lon;timestamp;temperature;humidity
19292;DHT22;9779;51.756;7.450;2023-08-06T10:57:53;19.40;99.90
19292;DHT22;9779;51.756;7.450;2023-08-06T11:00:23;19.50;99.90
19292;DHT22;9779;51.756;7.450;2023-08-06T11:02:52;19.50;99.90
19292;DHT22;9779;51.756;7.450;2023-08-06T11:05:21;19.60;99.90
19292;DHT22;9779;51.756;7.450;2023-08-06T11:07:47;19.60;99.90
19292;DHT22;9779;51.756;7.450;2023-08-06T11:10:14;19.60;99.90
19292;DHT22;9779;51.756;7.450;2023-08-06T11:12:40;19.70;99.90
19292;DHT22;9779;51.756;7.450;2023-08-06T11:15:06;19.80;99.90
19292;DHT22;9779;51.756;7.450;2023-08-06T11:17:33;19.90;99.90
19292;DHT22;9779;51.756;7.450;2023-08-06T11:20:02;20.00;99.90
19292;DHT22;9779;51.756;7.450;2023-08-06T11:22:28;20.00;99.90
19292;DHT22;9779;51.756;7.450;2023-08-06T11:24:54;20.10;99.90
19292;DHT22;9779;51.756;7.450;2023-08-06T11:27:20;20.10;99.90
19292;DHT22;9779;51.756;7.450;2023-08-06T11:29:46;20.10;99.90
19292;DHT22;9779;51.756;7.450;2023-08-06T11:32:12;20.00;99.90
19292;DHT22;9779;51.756;7.450;2023-08-06T11:34:39;20.00;99.90
19292;DHT22;9779;51.756;7.450;2023-08-06T11:37:06;20.10;99.90
19292;DHT22;9779;51.756;7.450;2023-08-06T11:39:36;20.10;99.90
19292;DHT22;9779;51.756;7.450;2023-08-06T11:42:03;20.10;99.90
19292;DHT22;9779;51.756;7.450;2023-08-06T11:44:36;20.10;99.90
19292;DHT22;9779;51.756;7.450;2023-08-06T11:47:03;20.10;99.90
19292;DHT22;9779;51.756;7.450;2023-08-06T11:49:47;20.10;99.90
19292;DHT22;9779;51.756;7.450;2023-08-06T11:52:21;20.20;99.90
19292;DHT22;9779;51.756;7.450;2023-08-06T11:57:25;20.30;99.90
19292;DHT22;9779;51.756;7.450;2023-08-06T11:59:50;20.20;99.90
19292;DHT22;9779;51.756;7.450;2023-08-06T12:02:16;20.20;99.90
19292;DHT22;9779;51.756;7.450;2023-08-06T12:05:21;20.30;99.90
19292;DHT22;9779;51.756;7.450;2023-08-06T12:07:56;20.40;99.90
19292;DHT22;9779;51.756;7.450;2023-08-06T12:10:24;20.40;99.90
19292;DHT22;9779;51.756;7.450;2023-08-06T12:12:50;20.50;99.90
19292;DHT22;9779;51.756;7.450;2023-08-06T12:15:16;20.60;99.90
19292;DHT22;9779;51.756;7.450;2023-08-06T12:17:42;20.70;99.90
19292;DHT22;9779;51.756;7.450;2023-08-06T12:20:09;20.70;99.90
19292;DHT22;9779;51.756;7.450;2023-08-06T12:22:35;20.60;99.90
19292;DHT22;9779;51.756;7.450;2023-08-06T12:25:02;20.70;99.90
19292;DHT22;9779;51.756;7.450;2023-08-06T12:27:36;20.70;99.90
19292;DHT22;9779;51.756;7.450;2023-08-06T12:30:02;20.80;99.90
19292;DHT22;9779;51.756;7.450;2023-08-06T12:32:29;20.80;99.90
19292;DHT22;9779;51.756;7.450;2023-08-06T12:34:54;20.90;99.90
19292;DHT22;9779;51.756;7.450;2023-08-06T12:37:20;20.80;99.90
19292;DHT22;9779;51.756;7.450;2023-08-06T12:39:46;20.90;99.90
19292;DHT22;9779;51.756;7.450;2023-08-06T12:42:12;21.00;99.90
19292;DHT22;9779;51.756;7.450;2023-08-06T12:44:38;21.10;99.90
19292;DHT22;9779;51.756;7.450;2023-08-06T12:47:03;21.30;99.90
19292;DHT22;9779;51.756;7.450;2023-08-06T12:49:29;21.30;99.90
19292;DHT22;9779;51.756;7.450;2023-08-06T12:51:56;21.40;99.90
19292;DHT22;9779;51.756;7.450;2023-08-06T12:54:25;21.30;99.90
19292;DHT22;9779;51.756;7.450;2023-08-06T12:56:51;21.20;99.90
19292;DHT22;9779;51.756;7.450;2023-08-06T12:59:18;21.10;99.90
19292;DHT22;9779;51.756;7.450;2023-08-06T13:01:44;20.90;99.90
19292;DHT22;9779;51.756;7.450;2023-08-06T13:04:10;20.80;99.90
19292;DHT22;9779;51.756;7.450;2023-08-06T13:06:36;20.70;99.90
19292;DHT22;9779;51.756;7.450;2023-08-06T13:09:06;20.60;99.90
19292;DHT22;9779;51.756;7.450;2023-08-06T13:11:34;20.60;99.90
19292;DHT22;9779;51.756;7.450;2023-08-06T13:14:10;20.40;99.90
19292;DHT22;9779;51.756;7.450;2023-08-06T13:16:37;20.30;99.90
19292;DHT22;9779;51.756;7.450;2023-08-06T13:19:04;20.20;99.90
19292;DHT22;9779;51.756;7.450;2023-08-06T13:24:03;19.70;99.90
19292;DHT22;9779;51.756;7.450;2023-08-06T13:26:32;19.60;99.90
19292;DHT22;9779;51.756;7.450;2023-08-06T13:28:58;19.40;99.90
19292;DHT22;9779;51.756;7.450;2023-08-06T14:26:17;17.70;99.90
19292;DHT22;9779;51.756;7.450;2023-08-06T14:28:42;17.50;99.90
19292;DHT22;9779;51.756;7.450;2023-08-06T14:31:08;17.40;99.90
19292;DHT22;9779;51.756;7.450;2023-08-06T14:33:33;17.40;99.90
19292;DHT22;9779;51.756;7.450;2023-08-06T14:35:59;17.30;99.90
19292;DHT22;9779;51.756;7.450;2023-08-06T14:38:25;17.20;99.90
19292;DHT22;9779;51.756;7.450;2023-08-06T14:40:50;17.20;99.90
19292;DHT22;9779;51.756;7.450;2023-08-06T14:43:16;17.10;99.90
19292;DHT22;9779;51.756;7.450;2023-08-06T14:45:42;17.10;99.90
19292;DHT22;9779;51.756;7.450;2023-08-06T14:48:08;17.00;99.90
19292;DHT22;9779;51.756;7.450;2023-08-06T14:50:33;17.00;99.90
19292;DHT22;9779;51.756;7.450;2023-08-06T14:52:59;16.90;99.90
19292;DHT22;9779;51.756;7.450;2023-08-06T14:55:28;17.00;99.90
19292;DHT22;9779;51.756;7.450;2023-08-06T14:57:54;17.00;99.90
19292;DHT22;9779;51.756;7.450;2023-08-06T15:00:20;16.90;99.90
19292;DHT22;9779;51.756;7.450;2023-08-06T15:02:46;16.90;99.90
19292;DHT22;9779;51.756;7.450;2023-08-06T15:05:11;16.80;99.90
19292;DHT22;9779;51.756;7.450;2023-08-06T15:07:37;16.80;99.90
19292;DHT22;9779;51.756;7.450;2023-08-06T15:10:04;16.70;99.90
19292;DHT22;9779;51.756;7.450;2023-08-06T15:12:32;16.70;99.90
19292;DHT22;9779;51.756;7.450;2023-08-06T15:14:58;16.70;99.90
19292;DHT22;9779;51.756;7.450;2023-08-06T15:17:26;16.60;99.90
19292;DHT22;9779;51.756;7.450;2023-08-06T15:19:52;16.50;99.90
19292;DHT22;9779;51.756;7.450;2023-08-06T15:22:17;16.50;99.90
19292;DHT22;9779;51.756;7.450;2023-08-06T15:24:43;16.40;99.90
19292;DHT22;9779;51.756;7.450;2023-08-06T15:27:09;16.40;99.90
19292;DHT22;9779;51.756;7.450;2023-08-06T15:29:35;16.30;99.90
19292;DHT22;9779;51.756;7.450;2023-08-06T15:32:01;16.30;99.90
19292;DHT22;9779;51.756;7.450;2023-08-06T15:34:27;16.20;99.90
19292;DHT22;9779;51.756;7.450;2023-08-06T15:36:53;16.20;99.90
19292;DHT22;9779;51.756;7.450;2023-08-06T15:39:20;16.20;99.90
19292;DHT22;9779;51.756;7.450;2023-08-06T15:41:45;16.20;99.90
19292;DHT22;9779;51.756;7.450;2023-08-06T15:44:11;16.10;99.90
19292;DHT22;9779;51.756;7.450;2023-08-06T15:46:37;16.10;99.90
19292;DHT22;9779;51.756;7.450;2023-08-06T15:49:03;16.10;99.90
19292;DHT22;9779;51.756;7.450;2023-08-06T15:51:30;16.10;99.90
19292;DHT22;9779;51.756;7.450;2023-08-06T15:53:56;16.10;99.90
19292;DHT22;9779;51.756;7.450;2023-08-06T15:56:21;16.00;99.90
19292;DHT22;9779;51.756;7.450;2023-08-06T15:58:47;16.00;99.90
19292;DHT22;9779;51.756;7.450;2023-08-06T16:01:12;16.00;99.90
19292;DHT22;9779;51.756;7.450;2023-08-06T16:03:39;16.00;99.90
19292;DHT22;9779;51.756;7.450;2023-08-06T16:06:09;16.00;99.90
19292;DHT22;9779;51.756;7.450;2023-08-06T16:08:34;16.00;99.90
19292;DHT22;9779;51.756;7.450;2023-08-06T16:11:00;16.00;99.90
19292;DHT22;9779;51.756;7.450;2023-08-06T16:13:25;16.00;99.90
19292;DHT22;9779;51.756;7.450;2023-08-06T16:15:51;16.00;99.90
19292;DHT22;9779;51.756;7.450;2023-08-06T16:18:16;15.90;99.90
19292;DHT22;9779;51.756;7.450;2023-08-06T16:20:43;15.90;99.90
19292;DHT22;9779;51.756;7.450;2023-08-06T16:23:09;15.90;99.90
19292;DHT22;9779;51.756;7.450;2023-08-06T16:25:38;15.80;99.90
19292;DHT22;9779;51.756;7.450;2023-08-06T16:28:04;15.80;99.90
19292;DHT22;9779;51.756;7.450;2023-08-06T16:30:30;15.90;99.90
19292;DHT22;9779;51.756;7.450;2023-08-06T16:32:59;15.90;99.90
19292;DHT22;9779;51.756;7.450;2023-08-06T16:35:27;15.80;99.90
19292;DHT22;9779;51.756;7.450;2023-08-06T16:37:53;15.70;99.90
19292;DHT22;9779;51.756;7.450;2023-08-06T16:40:19;15.80;99.90
19292;DHT22;9779;51.756;7.450;2023-08-06T16:42:44;15.70;99.90
19292;DHT22;9779;51.756;7.450;2023-08-06T16:45:10;15.80;99.90
19292;DHT22;9779;51.756;7.450;2023-08-06T16:47:35;15.70;99.90
19292;DHT22;9779;51.756;7.450;2023-08-06T16:50:01;15.80;99.90
19292;DHT22;9779;51.756;7.450;2023-08-06T16:52:27;15.80;99.90
19292;DHT22;9779;51.756;7.450;2023-08-06T16:54:53;15.70;99.90
19292;DHT22;9779;51.756;7.450;2023-08-06T16:57:19;15.80;99.90
19292;DHT22;9779;51.756;7.450;2023-08-06T16:59:44;15.70;99.90
19292;DHT22;9779;51.756;7.450;2023-08-06T17:02:10;15.70;99.90
19292;DHT22;9779;51.756;7.450;2023-08-06T17:04:36;15.80;99.90
19292;DHT22;9779;51.756;7.450;2023-08-06T17:07:01;15.80;99.90
19292;DHT22;9779;51.756;7.450;2023-08-06T17:09:27;15.70;99.90
19292;DHT22;9779;51.756;7.450;2023-08-06T17:11:52;15.80;99.90
19292;DHT22;9779;51.756;7.450;2023-08-06T17:14:18;15.70;99.90
19292;DHT22;9779;51.756;7.450;2023-08-06T17:16:44;15.60;99.90
19292;DHT22;9779;51.756;7.450;2023-08-06T17:19:09;15.70;99.90
19292;DHT22;9779;51.756;7.450;2023-08-06T17:21:35;15.60;99.90
19292;DHT22;9779;51.756;7.450;2023-08-06T17:24:00;15.60;99.90
19292;DHT22;9779;51.756;7.450;2023-08-06T17:26:26;15.60;99.90
19292;DHT22;9779;51.756;7.450;2023-08-06T17:28:53;15.60;99.90
19292;DHT22;9779;51.756;7.450;2023-08-06T17:31:18;15.60;99.90
19292;DHT22;9779;51.756;7.450;2023-08-06T17:33:44;15.60;99.90
19292;DHT22;9779;51.756;7.450;2023-08-06T17:36:10;15.60;99.90
19292;DHT22;9779;51.756;7.450;2023-08-06T17:38:35;15.60;99.90
19292;DHT22;9779;51.756;7.450;2023-08-06T17:41:01;15.60;99.90
19292;DHT22;9779;51.756;7.450;2023-08-06T17:43:30;15.50;99.90
19292;DHT22;9779;51.756;7.450;2023-08-06T17:45:55;15.50;99.90
19292;DHT22;9779;51.756;7.450;2023-08-06T17:48:21;15.50;99.90
19292;DHT22;9779;51.756;7.450;2023-08-06T17:50:47;15.50;99.90
19292;DHT22;9779;51.756;7.450;2023-08-06T17:53:12;15.50;99.90
19292;DHT22;9779;51.756;7.450;2023-08-06T17:55:38;15.40;99.90
19292;DHT22;9779;51.756;7.450;2023-08-06T17:58:06;15.40;99.90
19292;DHT22;9779;51.756;7.450;2023-08-06T18:00:32;15.40;99.90
19292;DHT22;9779;51.756;7.450;2023-08-06T18:02:58;15.30;99.90
19292;DHT22;9779;51.756;7.450;2023-08-06T18:05:24;15.30;99.90
19292;DHT22;9779;51.756;7.450;2023-08-06T18:07:51;15.30;99.90
19292;DHT22;9779;51.756;7.450;2023-08-06T18:10:16;15.30;99.90
19292;DHT22;9779;51.756;7.450;2023-08-06T18:12:42;15.30;99.90
19292;DHT22;9779;51.756;7.450;2023-08-06T18:15:11;15.20;99.90
19292;DHT22;9779;51.756;7.450;2023-08-06T18:17:37;15.10;99.90
19292;DHT22;9779;51.756;7.450;2023-08-06T18:20:05;15.20;99.90
19292;DHT22;9779;51.756;7.450;2023-08-06T18:22:31;15.20;99.90
19292;DHT22;9779;51.756;7.450;2023-08-06T18:24:56;15.10;99.90
19292;DHT22;9779;51.756;7.450;2023-08-06T18:27:27;14.90;99.90
19292;DHT22;9779;51.756;7.450;2023-08-06T18:29:53;15.10;99.90
19292;DHT22;9779;51.756;7.450;2023-08-06T18:32:21;15.10;99.90
19292;DHT22;9779;51.756;7.450;2023-08-06T18:34:47;15.00;99.90
19292;DHT22;9779;51.756;7.450;2023-08-06T18:37:13;15.00;99.90
19292;DHT22;9779;51.756;7.450;2023-08-06T18:39:38;15.00;99.90
19292;DHT22;9779;51.756;7.450;2023-08-06T18:42:04;15.10;99.90
19292;DHT22;9779;51.756;7.450;2023-08-06T18:44:30;15.00;99.90
19292;DHT22;9779;51.756;7.450;2023-08-06T18:46:55;15.00;99.90
19292;DHT22;9779;51.756;7.450;2023-08-06T18:49:21;15.00;99.90
19292;DHT22;9779;51.756;7.450;2023-08-06T18:51:47;15.00;99.90
19292;DHT22;9779;51.756;7.450;2023-08-06T18:54:15;15.00;99.90
19292;DHT22;9779;51.756;7.450;2023-08-06T18:56:40;15.00;99.90
19292;DHT22;9779;51.756;7.450;2023-08-06T18:59:06;15.00;99.90
19292;DHT22;9779;51.756;7.450;2023-08-06T19:01:32;15.00;99.90
19292;DHT22;9779;51.756;7.450;2023-08-06T19:03:57;14.90;99.90
19292;DHT22;9779;51.756;7.450;2023-08-06T19:06:23;14.90;99.90
19292;DHT22;9779;51.756;7.450;2023-08-06T19:08:54;14.90;99.90
19292;DHT22;9779;51.756;7.450;2023-08-06T19:11:20;14.90;99.90
19292;DHT22;9779;51.756;7.450;2023-08-06T19:13:45;14.90;99.90
19292;DHT22;9779;51.756;7.450;2023-08-06T19:16:11;14.90;99.90
19292;DHT22;9779;51.756;7.450;2023-08-06T19:18:46;14.80;99.90
19292;DHT22;9779;51.756;7.450;2023-08-06T19:21:12;14.80;99.90
19292;DHT22;9779;51.756;7.450;2023-08-06T19:23:37;14.70;99.90
19292;DHT22;9779;51.756;7.450;2023-08-06T19:26:03;14.70;99.90
19292;DHT22;9779;51.756;7.450;2023-08-06T19:28:28;14.60;99.90
19292;DHT22;9779;51.756;7.450;2023-08-06T19:30:58;14.60;99.90
19292;DHT22;9779;51.756;7.450;2023-08-06T19:33:24;14.50;99.90
19292;DHT22;9779;51.756;7.450;2023-08-06T19:35:51;14.50;99.90
19292;DHT22;9779;51.756;7.450;2023-08-06T19:38:19;14.40;99.90
19292;DHT22;9779;51.756;7.450;2023-08-06T19:40:45;14.40;99.90
19292;DHT22;9779;51.756;7.450;2023-08-06T19:43:11;14.40;99.90
19292;DHT22;9779;51.756;7.450;2023-08-06T19:45:37;14.40;99.90
19292;DHT22;9779;51.756;7.450;2023-08-06T19:48:05;14.40;99.90
19292;DHT22;9779;51.756;7.450;2023-08-06T19:50:32;14.40;99.90
19292;DHT22;9779;51.756;7.450;2023-08-06T19:52:57;14.40;99.90
19292;DHT22;9779;51.756;7.450;2023-08-06T19:55:23;14.20;99.90
19292;DHT22;9779;51.756;7.450;2023-08-06T19:57:49;14.30;99.90
19292;DHT22;9779;51.756;7.450;2023-08-06T20:00:15;14.30;99.90
19292;DHT22;9779;51.756;7.450;2023-08-06T20:02:41;14.20;99.90
19292;DHT22;9779;51.756;7.450;2023-08-06T20:05:07;14.20;99.90
19292;DHT22;9779;51.756;7.450;2023-08-06T20:07:33;14.20;99.90
19292;DHT22;9779;51.756;7.450;2023-08-06T20:09:58;14.20;99.90
19292;DHT22;9779;51.756;7.450;2023-08-06T20:12:24;14.20;99.90
19292;DHT22;9779;51.756;7.450;2023-08-06T20:14:50;14.20;99.90
19292;DHT22;9779;51.756;7.450;2023-08-06T20:17:15;14.20;99.90
19292;DHT22;9779;51.756;7.450;2023-08-06T20:19:41;14.10;99.90
19292;DHT22;9779;51.756;7.450;2023-08-06T20:22:06;14.10;99.90
19292;DHT22;9779;51.756;7.450;2023-08-06T20:24:32;14.10;99.90
19292;DHT22;9779;51.756;7.450;2023-08-06T20:26:57;14.10;99.90
19292;DHT22;9779;51.756;7.450;2023-08-06T20:29:27;14.10;99.90
19292;DHT22;9779;51.756;7.450;2023-08-06T20:31:52;14.10;99.90
19292;DHT22;9779;51.756;7.450;2023-08-06T20:34:18;14.10;99.90
19292;DHT22;9779;51.756;7.450;2023-08-06T20:36:44;14.10;99.90
19292;DHT22;9779;51.756;7.450;2023-08-06T20:39:09;14.10;99.90
19292;DHT22;9779;51.756;7.450;2023-08-06T20:41:35;14.10;99.90
19292;DHT22;9779;51.756;7.450;2023-08-06T20:44:01;14.10;99.90
19292;DHT22;9779;51.756;7.450;2023-08-06T20:46:26;14.00;99.90
19292;DHT22;9779;51.756;7.450;2023-08-06T20:48:52;14.00;99.90
19292;DHT22;9779;51.756;7.450;2023-08-06T20:51:17;14.10;99.90
19292;DHT22;9779;51.756;7.450;2023-08-06T20:53:43;14.10;99.90
19292;DHT22;9779;51.756;7.450;2023-08-06T20:56:09;14.10;99.90
19292;DHT22;9779;51.756;7.450;2023-08-06T20:58:35;14.00;99.90
19292;DHT22;9779;51.756;7.450;2023-08-06T21:01:01;14.00;99.90
19292;DHT22;9779;51.756;7.450;2023-08-06T21:03:27;14.00;99.90
19292;DHT22;9779;51.756;7.450;2023-08-06T21:06:05;14.00;99.90
19292;DHT22;9779;51.756;7.450;2023-08-06T21:08:32;14.00;99.90
19292;DHT22;9779;51.756;7.450;2023-08-06T21:11:02;14.00;99.90
19292;DHT22;9779;51.756;7.450;2023-08-06T21:13:28;14.00;99.90
19292;DHT22;9779;51.756;7.450;2023-08-06T21:15:59;13.90;99.90
19292;DHT22;9779;51.756;7.450;2023-08-06T21:18:30;14.00;99.90
19292;DHT22;9779;51.756;7.450;2023-08-06T21:20:57;13.90;99.90
19292;DHT22;9779;51.756;7.450;2023-08-06T21:23:23;13.90;99.90
19292;DHT22;9779;51.756;7.450;2023-08-06T21:25:55;13.90;99.90
19292;DHT22;9779;51.756;7.450;2023-08-06T21:28:21;13.90;99.90
19292;DHT22;9779;51.756;7.450;2023-08-06T21:31:00;13.90;99.90
19292;DHT22;9779;51.756;7.450;2023-08-06T21:33:28;13.80;99.90
19292;DHT22;9779;51.756;7.450;2023-08-06T21:35:55;13.80;99.90
19292;DHT22;9779;51.756;7.450;2023-08-06T21:38:27;13.80;99.90
19292;DHT22;9779;51.756;7.450;2023-08-06T21:40:54;13.90;99.90
19292;DHT22;9779;51.756;7.450;2023-08-06T21:43:25;13.90;99.90
19292;DHT22;9779;51.756;7.450;2023-08-06T21:45:50;13.90;99.90
19292;DHT22;9779;51.756;7.450;2023-08-06T21:48:16;13.90;99.90
19292;DHT22;9779;51.756;7.450;2023-08-06T21:50:42;13.90;99.90
19292;DHT22;9779;51.756;7.450;2023-08-06T21:53:07;13.80;99.90
19292;DHT22;9779;51.756;7.450;2023-08-06T21:55:34;13.80;99.90
19292;DHT22;9779;51.756;7.450;2023-08-06T21:57:59;13.80;99.90
19292;DHT22;9779;51.756;7.450;2023-08-06T22:00:25;13.80;99.90
19292;DHT22;9779;51.756;7.450;2023-08-06T22:02:51;13.70;99.90
19292;DHT22;9779;51.756;7.450;2023-08-06T22:05:16;13.70;99.90
19292;DHT22;9779;51.756;7.450;2023-08-06T22:07:42;13.80;99.90
19292;DHT22;9779;51.756;7.450;2023-08-06T22:10:08;13.80;99.90
19292;DHT22;9779;51.756;7.450;2023-08-06T22:12:33;13.80;99.90
19292;DHT22;9779;51.756;7.450;2023-08-06T22:14:59;13.80;99.90
19292;DHT22;9779;51.756;7.450;2023-08-06T22:17:24;13.80;99.90
19292;DHT22;9779;51.756;7.450;2023-08-06T22:19:50;13.80;99.90
19292;DHT22;9779;51.756;7.450;2023-08-06T22:22:16;13.80;99.90
19292;DHT22;9779;51.756;7.450;2023-08-06T22:24:41;13.80;99.90
19292;DHT22;9779;51.756;7.450;2023-08-06T22:27:07;13.80;99.90
19292;DHT22;9779;51.756;7.450;2023-08-06T22:29:33;13.80;99.90
19292;DHT22;9779;51.756;7.450;2023-08-06T22:31:58;13.80;99.90
19292;DHT22;9779;51.756;7.450;2023-08-06T22:34:25;13.80;99.90
19292;DHT22;9779;51.756;7.450;2023-08-06T22:36:51;13.80;99.90
19292;DHT22;9779;51.756;7.450;2023-08-06T22:39:17;13.80;99.90
19292;DHT22;9779;51.756;7.450;2023-08-06T22:41:42;13.80;99.90
19292;DHT22;9779;51.756;7.450;2023-08-06T22:44:08;13.80;99.90
19292;DHT22;9779;51.756;7.450;2023-08-06T22:46:34;13.70;99.90
19292;DHT22;9779;51.756;7.450;2023-08-06T22:48:59;13.80;99.90
19292;DHT22;9779;51.756;7.450;2023-08-06T22:51:25;13.80;99.90
19292;DHT22;9779;51.756;7.450;2023-08-06T22:53:51;13.80;99.90
19292;DHT22;9779;51.756;7.450;2023-08-06T22:56:16;13.70;99.90
19292;DHT22;9779;51.756;7.450;2023-08-06T22:58:42;13.70;99.90
19292;DHT22;9779;51.756;7.450;2023-08-06T23:01:08;13.70;99.90
19292;DHT22;9779;51.756;7.450;2023-08-06T23:03:34;13.70;99.90
19292;DHT22;9779;51.756;7.450;2023-08-06T23:05:59;13.70;99.90
19292;DHT22;9779;51.756;7.450;2023-08-06T23:08:25;13.70;99.90
19292;DHT22;9779;51.756;7.450;2023-08-06T23:10:51;13.70;99.90
19292;DHT22;9779;51.756;7.450;2023-08-06T23:13:16;13.70;99.90
19292;DHT22;9779;51.756;7.450;2023-08-06T23:15:42;13.70;99.90
19292;DHT22;9779;51.756;7.450;2023-08-06T23:18:08;13.70;99.90
19292;DHT22;9779;51.756;7.450;2023-08-06T23:20:33;13.70;99.90
19292;DHT22;9779;51.756;7.450;2023-08-06T23:22:59;13.70;99.90
19292;DHT22;9779;51.756;7.450;2023-08-06T23:25:25;13.70;99.90
19292;DHT22;9779;51.756;7.450;2023-08-06T23:27:51;13.70;99.90
19292;DHT22;9779;51.756;7.450;2023-08-06T23:30:16;13.70;99.90
19292;DHT22;9779;51.756;7.450;2023-08-06T23:32:42;13.70;99.90
19292;DHT22;9779;51.756;7.450;2023-08-06T23:35:08;13.70;99.90
19292;DHT22;9779;51.756;7.450;2023-08-06T23:37:34;13.70;99.90
19292;DHT22;9779;51.756;7.450;2023-08-06T23:39:59;13.70;99.90
19292;DHT22;9779;51.756;7.450;2023-08-06T23:42:25;13.70;99.90
19292;DHT22;9779;51.756;7.450;2023-08-06T23:44:52;13.70;99.90
19292;DHT22;9779;51.756;7.450;2023-08-06T23:47:18;13.70;99.90
19292;DHT22;9779;51.756;7.450;2023-08-06T23:49:43;13.70;99.90
19292;DHT22;9779;51.756;7.450;2023-08-06T23:52:09;13.70;99.90
19292;DHT22;9779;51.756;7.450;2023-08-06T23:54:34;13.70;99.90
19292;DHT22;9779;51.756;7.450;2023-08-06T23:57:00;13.70;99.90
19292;DHT22;9779;51.756;7.450;2023-08-06T23:59:26;13.70;99.90
